sensor_id;sensor_type;location;lat;lon;timestamp;P1;durP1;ratioP1;P2;durP2;ratioP2
13319;SDS011;59599;47.608;12.190;2023-06-05T04:00:37;7.13;;;5.10;;
13319;SDS011;59599;47.608;12.190;2023-06-05T04:03:03;6.27;;;4.90;;
13319;SDS011;59599;47.608;12.190;2023-06-05T04:05:29;7.37;;;4.90;;
13319;SDS011;59599;47.608;12.190;2023-06-05T04:07:55;6.97;;;4.80;;
13319;SDS011;59599;47.608;12.190;2023-06-05T04:10:21;6.10;;;4.70;;
13319;SDS011;59599;47.608;12.190;2023-06-05T04:12:47;6.67;;;5.10;;
13319;SDS011;59599;47.608;12.190;2023-06-05T04:15:12;6.40;;;4.80;;
13319;SDS011;59599;47.608;12.190;2023-06-05T04:17:38;6.03;;;5.20;;
13319;SDS011;59599;47.608;12.190;2023-06-05T04:20:05;6.23;;;4.60;;
13319;SDS011;59599;47.608;12.190;2023-06-05T04:22:34;6.70;;;4.90;;
13319;SDS011;59599;47.608;12.190;2023-06-05T04:25:00;6.47;;;4.87;;
13319;SDS011;59599;47.608;12.190;2023-06-05T04:27:25;7.63;;;4.83;;
13319;SDS011;59599;47.608;12.190;2023-06-05T04:29:53;5.80;;;5.23;;
13319;SDS011;59599;47.608;12.190;2023-06-05T04:32:19;5.63;;;5.03;;
13319;SDS011;59599;47.608;12.190;2023-06-05T04:34:45;10.37;;;5.70;;
13319;SDS011;59599;47.608;12.190;2023-06-05T04:37:11;5.40;;;4.90;;
13319;SDS011;59599;47.608;12.190;2023-06-05T04:39:37;5.67;;;4.93;;
13319;SDS011;59599;47.608;12.190;2023-06-05T04:42:03;8.47;;;5.83;;
13319;SDS011;59599;47.608;12.190;2023-06-05T04:44:29;7.43;;;5.10;;
13319;SDS011;59599;47.608;12.190;2023-06-05T04:46:54;6.03;;;5.40;;
13319;SDS011;59599;47.608;12.190;2023-06-05T04:49:21;5.50;;;4.67;;
13319;SDS011;59599;47.608;12.190;2023-06-05T04:51:51;7.77;;;5.00;;
13319;SDS011;59599;47.608;12.190;2023-06-05T04:54:18;8.50;;;5.40;;
13319;SDS011;59599;47.608;12.190;2023-06-05T04:56:44;7.80;;;6.00;;
13319;SDS011;59599;47.608;12.190;2023-06-05T04:59:10;6.87;;;5.33;;
13319;SDS011;59599;47.608;12.190;2023-06-05T05:01:36;6.70;;;5.37;;
13319;SDS011;59599;47.608;12.190;2023-06-05T05:04:02;6.10;;;4.90;;
13319;SDS011;59599;47.608;12.190;2023-06-05T05:06:28;7.80;;;4.50;;
13319;SDS011;59599;47.608;12.190;2023-06-05T05:08:54;6.27;;;4.80;;
13319;SDS011;59599;47.608;12.190;2023-06-05T05:11:20;7.80;;;5.00;;
13319;SDS011;59599;47.608;12.190;2023-06-05T05:13:46;9.93;;;5.10;;
13319;SDS011;59599;47.608;12.190;2023-06-05T05:16:12;6.20;;;4.93;;
13319;SDS011;59599;47.608;12.190;2023-06-05T05:18:38;8.33;;;5.33;;
13319;SDS011;59599;47.608;12.190;2023-06-05T05:21:05;5.87;;;4.97;;
13319;SDS011;59599;47.608;12.190;2023-06-05T05:23:31;13.10;;;5.17;;
13319;SDS011;59599;47.608;12.190;2023-06-05T05:25:58;6.25;;;4.85;;
13319;SDS011;59599;47.608;12.190;2023-06-05T05:28:24;7.10;;;4.70;;
13319;SDS011;59599;47.608;12.190;2023-06-05T05:30:51;7.20;;;5.10;;
13319;SDS011;59599;47.608;12.190;2023-06-05T05:33:17;6.13;;;4.67;;
13319;SDS011;59599;47.608;12.190;2023-06-05T05:35:43;7.73;;;4.50;;
13319;SDS011;59599;47.608;12.190;2023-06-05T05:38:10;6.07;;;4.63;;
13319;SDS011;59599;47.608;12.190;2023-06-05T05:40:35;5.43;;;4.83;;
13319;SDS011;59599;47.608;12.190;2023-06-05T05:43:01;8.87;;;4.90;;
13319;SDS011;59599;47.608;12.190;2023-06-05T05:45:27;7.30;;;4.40;;
13319;SDS011;59599;47.608;12.190;2023-06-05T05:47:53;5.43;;;4.40;;
13319;SDS011;59599;47.608;12.190;2023-06-05T05:50:19;4.90;;;4.27;;
13319;SDS011;59599;47.608;12.190;2023-06-05T05:52:45;7.33;;;4.97;;
13319;SDS011;59599;47.608;12.190;2023-06-05T05:55:12;6.53;;;4.20;;
13319;SDS011;59599;47.608;12.190;2023-06-05T05:57:38;4.73;;;4.17;;
13319;SDS011;59599;47.608;12.190;2023-06-05T06:00:05;5.93;;;3.97;;
13319;SDS011;59599;47.608;12.190;2023-06-05T06:02:35;7.03;;;4.30;;
13319;SDS011;59599;47.608;12.190;2023-06-05T06:05:02;11.03;;;4.60;;
13319;SDS011;59599;47.608;12.190;2023-06-05T06:07:28;5.43;;;4.37;;
13319;SDS011;59599;47.608;12.190;2023-06-05T06:09:54;4.33;;;3.93;;
13319;SDS011;59599;47.608;12.190;2023-06-05T06:12:20;4.60;;;4.10;;
13319;SDS011;59599;47.608;12.190;2023-06-05T06:14:46;4.33;;;3.90;;
13319;SDS011;59599;47.608;12.190;2023-06-05T06:17:13;7.50;;;4.13;;
13319;SDS011;59599;47.608;12.190;2023-06-05T06:19:39;5.15;;;4.45;;
13319;SDS011;59599;47.608;12.190;2023-06-05T06:22:06;5.75;;;4.32;;
13319;SDS011;59599;47.608;12.190;2023-06-05T06:24:36;6.20;;;4.00;;
13319;SDS011;59599;47.608;12.190;2023-06-05T06:27:04;6.18;;;4.30;;
13319;SDS011;59599;47.608;12.190;2023-06-05T06:29:31;7.22;;;4.35;;
13319;SDS011;59599;47.608;12.190;2023-06-05T06:31:57;4.75;;;4.18;;
13319;SDS011;59599;47.608;12.190;2023-06-05T06:34:22;7.43;;;3.90;;
13319;SDS011;59599;47.608;12.190;2023-06-05T06:36:49;5.75;;;4.25;;
13319;SDS011;59599;47.608;12.190;2023-06-05T06:39:15;7.90;;;4.40;;
13319;SDS011;59599;47.608;12.190;2023-06-05T06:41:43;6.07;;;4.10;;
13319;SDS011;59599;47.608;12.190;2023-06-05T06:44:09;10.18;;;4.85;;
13319;SDS011;59599;47.608;12.190;2023-06-05T06:46:35;5.78;;;3.90;;
13319;SDS011;59599;47.608;12.190;2023-06-05T06:49:01;8.65;;;4.40;;
13319;SDS011;59599;47.608;12.190;2023-06-05T06:51:27;5.57;;;4.10;;
13319;SDS011;59599;47.608;12.190;2023-06-05T06:53:53;5.03;;;4.53;;
13319;SDS011;59599;47.608;12.190;2023-06-05T06:56:19;4.97;;;4.50;;
13319;SDS011;59599;47.608;12.190;2023-06-05T06:58:45;5.72;;;4.28;;
13319;SDS011;59599;47.608;12.190;2023-06-05T07:01:11;4.90;;;4.40;;
13319;SDS011;59599;47.608;12.190;2023-06-05T07:03:38;4.97;;;4.45;;
13319;SDS011;59599;47.608;12.190;2023-06-05T07:06:05;6.60;;;4.10;;
13319;SDS011;59599;47.608;12.190;2023-06-05T07:08:31;7.15;;;4.80;;
13319;SDS011;59599;47.608;12.190;2023-06-05T07:10:57;5.90;;;4.82;;
13319;SDS011;59599;47.608;12.190;2023-06-05T07:13:23;5.18;;;4.32;;
13319;SDS011;59599;47.608;12.190;2023-06-05T07:15:48;6.40;;;4.68;;
13319;SDS011;59599;47.608;12.190;2023-06-05T07:18:16;7.80;;;5.22;;
13319;SDS011;59599;47.608;12.190;2023-06-05T07:20:42;5.93;;;5.25;;
13319;SDS011;59599;47.608;12.190;2023-06-05T07:23:08;5.97;;;4.95;;
13319;SDS011;59599;47.608;12.190;2023-06-05T07:25:34;5.22;;;4.72;;
13319;SDS011;59599;47.608;12.190;2023-06-05T07:27:59;5.70;;;5.03;;
13319;SDS011;59599;47.608;12.190;2023-06-05T07:30:26;6.10;;;4.65;;
13319;SDS011;59599;47.608;12.190;2023-06-05T07:32:53;5.15;;;4.65;;
13319;SDS011;59599;47.608;12.190;2023-06-05T07:35:19;7.03;;;5.40;;
13319;SDS011;59599;47.608;12.190;2023-06-05T07:37:46;8.18;;;5.13;;
13319;SDS011;59599;47.608;12.190;2023-06-05T07:40:12;5.10;;;4.60;;
13319;SDS011;59599;47.608;12.190;2023-06-05T07:42:38;6.75;;;5.15;;
13319;SDS011;59599;47.608;12.190;2023-06-05T07:45:04;5.10;;;4.60;;
13319;SDS011;59599;47.608;12.190;2023-06-05T07:47:30;7.35;;;4.68;;
13319;SDS011;59599;47.608;12.190;2023-06-05T07:49:57;6.85;;;4.57;;
13319;SDS011;59599;47.608;12.190;2023-06-05T07:52:24;7.15;;;4.90;;
13319;SDS011;59599;47.608;12.190;2023-06-05T07:54:50;9.90;;;5.03;;
13319;SDS011;59599;47.608;12.190;2023-06-05T07:57:16;5.95;;;4.90;;
13319;SDS011;59599;47.608;12.190;2023-06-05T07:59:42;4.88;;;4.43;;
13319;SDS011;59599;47.608;12.190;2023-06-05T08:02:08;4.30;;;3.78;;
13319;SDS011;59599;47.608;12.190;2023-06-05T08:04:34;4.72;;;4.22;;
13319;SDS011;59599;47.608;12.190;2023-06-05T08:07:00;5.22;;;4.13;;
13319;SDS011;59599;47.608;12.190;2023-06-05T08:09:25;4.18;;;3.75;;
13319;SDS011;59599;47.608;12.190;2023-06-05T08:11:51;5.18;;;3.92;;
13319;SDS011;59599;47.608;12.190;2023-06-05T08:14:17;4.50;;;3.90;;
13319;SDS011;59599;47.608;12.190;2023-06-05T08:16:43;5.07;;;4.57;;
13319;SDS011;59599;47.608;12.190;2023-06-05T08:19:09;5.30;;;4.25;;
13319;SDS011;59599;47.608;12.190;2023-06-05T08:21:35;4.80;;;4.05;;
13319;SDS011;59599;47.608;12.190;2023-06-05T08:24:05;4.43;;;3.90;;
13319;SDS011;59599;47.608;12.190;2023-06-05T08:26:31;3.92;;;3.50;;
13319;SDS011;59599;47.608;12.190;2023-06-05T08:28:57;4.43;;;4.03;;
13319;SDS011;59599;47.608;12.190;2023-06-05T08:31:23;4.50;;;3.85;;
13319;SDS011;59599;47.608;12.190;2023-06-05T08:33:49;6.25;;;3.78;;
13319;SDS011;59599;47.608;12.190;2023-06-05T08:36:15;4.68;;;4.18;;
13319;SDS011;59599;47.608;12.190;2023-06-05T08:38:42;4.30;;;3.90;;
13319;SDS011;59599;47.608;12.190;2023-06-05T08:41:08;4.85;;;4.13;;
13319;SDS011;59599;47.608;12.190;2023-06-05T08:43:37;6.68;;;4.28;;
13319;SDS011;59599;47.608;12.190;2023-06-05T08:46:08;6.13;;;4.22;;
13319;SDS011;59599;47.608;12.190;2023-06-05T08:48:40;5.28;;;4.05;;
13319;SDS011;59599;47.608;12.190;2023-06-05T08:51:06;5.45;;;3.97;;
13319;SDS011;59599;47.608;12.190;2023-06-05T08:53:34;6.05;;;4.50;;
13319;SDS011;59599;47.608;12.190;2023-06-05T08:56:01;4.35;;;3.95;;
13319;SDS011;59599;47.608;12.190;2023-06-05T08:58:26;4.80;;;4.25;;
13319;SDS011;59599;47.608;12.190;2023-06-05T09:00:52;6.65;;;4.20;;
13319;SDS011;59599;47.608;12.190;2023-06-05T09:03:18;5.45;;;4.70;;
13319;SDS011;59599;47.608;12.190;2023-06-05T09:05:45;9.23;;;6.10;;
13319;SDS011;59599;47.608;12.190;2023-06-05T09:08:12;7.07;;;5.90;;
13319;SDS011;59599;47.608;12.190;2023-06-05T09:10:38;9.00;;;6.68;;
13319;SDS011;59599;47.608;12.190;2023-06-05T09:13:04;7.68;;;5.97;;
13319;SDS011;59599;47.608;12.190;2023-06-05T09:15:31;6.07;;;5.38;;
13319;SDS011;59599;47.608;12.190;2023-06-05T09:18:13;8.23;;;6.22;;
13319;SDS011;59599;47.608;12.190;2023-06-05T09:20:41;17.88;;;6.78;;
13319;SDS011;59599;47.608;12.190;2023-06-05T09:23:23;8.85;;;6.60;;
13319;SDS011;59599;47.608;12.190;2023-06-05T09:25:54;8.30;;;5.63;;
13319;SDS011;59599;47.608;12.190;2023-06-05T09:28:21;8.50;;;6.70;;
13319;SDS011;59599;47.608;12.190;2023-06-05T09:30:54;8.20;;;6.13;;
13319;SDS011;59599;47.608;12.190;2023-06-05T09:33:21;7.30;;;6.60;;
13319;SDS011;59599;47.608;12.190;2023-06-05T09:35:48;8.43;;;6.38;;
13319;SDS011;59599;47.608;12.190;2023-06-05T09:38:27;7.25;;;6.30;;
13319;SDS011;59599;47.608;12.190;2023-06-05T09:41:00;8.32;;;5.72;;
13319;SDS011;59599;47.608;12.190;2023-06-05T09:43:35;10.48;;;7.18;;
13319;SDS011;59599;47.608;12.190;2023-06-05T09:46:08;7.57;;;6.78;;
13319;SDS011;59599;47.608;12.190;2023-06-05T09:48:35;7.50;;;6.72;;
13319;SDS011;59599;47.608;12.190;2023-06-05T09:51:08;7.55;;;6.35;;
13319;SDS011;59599;47.608;12.190;2023-06-05T09:53:37;13.30;;;7.38;;
13319;SDS011;59599;47.608;12.190;2023-06-05T09:56:06;14.18;;;7.57;;
13319;SDS011;59599;47.608;12.190;2023-06-05T09:58:32;9.68;;;7.20;;
13319;SDS011;59599;47.608;12.190;2023-06-05T10:00:59;8.85;;;7.93;;
13319;SDS011;59599;47.608;12.190;2023-06-05T10:03:28;8.90;;;7.20;;
13319;SDS011;59599;47.608;12.190;2023-06-05T10:05:54;8.98;;;7.05;;
13319;SDS011;59599;47.608;12.190;2023-06-05T10:08:20;8.95;;;7.20;;
13319;SDS011;59599;47.608;12.190;2023-06-05T10:10:46;9.30;;;7.68;;
13319;SDS011;59599;47.608;12.190;2023-06-05T10:13:13;12.80;;;7.38;;
13319;SDS011;59599;47.608;12.190;2023-06-05T10:15:40;12.73;;;7.28;;
13319;SDS011;59599;47.608;12.190;2023-06-05T10:18:08;8.90;;;7.88;;
13319;SDS011;59599;47.608;12.190;2023-06-05T10:20:34;9.90;;;8.80;;
13319;SDS011;59599;47.608;12.190;2023-06-05T10:23:01;14.05;;;9.32;;
13319;SDS011;59599;47.608;12.190;2023-06-05T10:25:28;11.73;;;8.85;;
13319;SDS011;59599;47.608;12.190;2023-06-05T10:38:41;11.38;;;9.50;;
13319;SDS011;59599;47.608;12.190;2023-06-05T10:41:08;10.70;;;8.43;;
13319;SDS011;59599;47.608;12.190;2023-06-05T10:43:47;13.48;;;9.02;;
13319;SDS011;59599;47.608;12.190;2023-06-05T10:54:02;11.02;;;8.68;;
13319;SDS011;59599;47.608;12.190;2023-06-05T10:59:14;9.32;;;8.30;;
13319;SDS011;59599;47.608;12.190;2023-06-05T11:01:40;9.55;;;8.63;;
13319;SDS011;59599;47.608;12.190;2023-06-05T11:04:06;10.00;;;8.68;;
13319;SDS011;59599;47.608;12.190;2023-06-05T11:06:32;10.93;;;9.75;;
13319;SDS011;59599;47.608;12.190;2023-06-05T11:09:11;9.98;;;8.98;;
13319;SDS011;59599;47.608;12.190;2023-06-05T11:11:57;11.25;;;8.40;;
13319;SDS011;59599;47.608;12.190;2023-06-05T11:14:24;10.98;;;9.77;;
13319;SDS011;59599;47.608;12.190;2023-06-05T11:16:50;10.40;;;8.00;;
13319;SDS011;59599;47.608;12.190;2023-06-05T11:24:36;10.82;;;8.38;;
13319;SDS011;59599;47.608;12.190;2023-06-05T11:27:04;13.02;;;10.60;;
13319;SDS011;59599;47.608;12.190;2023-06-05T11:29:32;10.80;;;9.50;;
13319;SDS011;59599;47.608;12.190;2023-06-05T11:31:58;11.32;;;9.50;;
13319;SDS011;59599;47.608;12.190;2023-06-05T11:34:25;13.57;;;9.45;;
13319;SDS011;59599;47.608;12.190;2023-06-05T11:36:52;9.68;;;8.68;;
13319;SDS011;59599;47.608;12.190;2023-06-05T11:39:18;11.40;;;9.40;;
13319;SDS011;59599;47.608;12.190;2023-06-05T11:41:48;9.80;;;8.80;;
13319;SDS011;59599;47.608;12.190;2023-06-05T11:44:15;12.65;;;8.88;;
13319;SDS011;59599;47.608;12.190;2023-06-05T11:46:54;8.77;;;7.82;;
13319;SDS011;59599;47.608;12.190;2023-06-05T11:49:24;10.57;;;9.23;;
13319;SDS011;59599;47.608;12.190;2023-06-05T11:51:50;10.90;;;9.23;;
13319;SDS011;59599;47.608;12.190;2023-06-05T11:54:23;9.20;;;8.18;;
13319;SDS011;59599;47.608;12.190;2023-06-05T11:56:50;13.43;;;9.93;;
13319;SDS011;59599;47.608;12.190;2023-06-05T11:59:17;10.27;;;9.18;;
13319;SDS011;59599;47.608;12.190;2023-06-05T12:01:43;10.38;;;8.48;;
13319;SDS011;59599;47.608;12.190;2023-06-05T12:04:09;11.45;;;9.52;;
13319;SDS011;59599;47.608;12.190;2023-06-05T12:06:45;10.57;;;9.55;;
13319;SDS011;59599;47.608;12.190;2023-06-05T12:09:12;10.13;;;9.13;;
13319;SDS011;59599;47.608;12.190;2023-06-05T12:11:41;11.40;;;9.70;;
13319;SDS011;59599;47.608;12.190;2023-06-05T12:14:09;14.50;;;9.45;;
13319;SDS011;59599;47.608;12.190;2023-06-05T12:16:36;12.23;;;8.90;;
13319;SDS011;59599;47.608;12.190;2023-06-05T12:19:10;10.68;;;8.18;;
13319;SDS011;59599;47.608;12.190;2023-06-05T12:21:37;9.23;;;8.30;;
13319;SDS011;59599;47.608;12.190;2023-06-05T12:24:04;9.23;;;8.43;;
13319;SDS011;59599;47.608;12.190;2023-06-05T12:26:47;8.88;;;7.97;;
13319;SDS011;59599;47.608;12.190;2023-06-05T12:29:13;10.00;;;7.68;;
13319;SDS011;59599;47.608;12.190;2023-06-05T12:31:38;8.88;;;7.97;;
13319;SDS011;59599;47.608;12.190;2023-06-05T12:34:05;9.13;;;8.02;;
13319;SDS011;59599;47.608;12.190;2023-06-05T12:36:31;9.05;;;7.80;;
13319;SDS011;59599;47.608;12.190;2023-06-05T12:39:06;9.98;;;7.30;;
13319;SDS011;59599;47.608;12.190;2023-06-05T12:41:32;10.25;;;7.60;;
13319;SDS011;59599;47.608;12.190;2023-06-05T12:43:59;8.52;;;6.90;;
13319;SDS011;59599;47.608;12.190;2023-06-05T12:46:26;8.90;;;7.90;;
13319;SDS011;59599;47.608;12.190;2023-06-05T12:48:53;9.13;;;8.23;;
13319;SDS011;59599;47.608;12.190;2023-06-05T12:51:18;8.35;;;7.50;;
13319;SDS011;59599;47.608;12.190;2023-06-05T12:53:45;9.70;;;8.40;;
13319;SDS011;59599;47.608;12.190;2023-06-05T12:56:11;8.80;;;8.00;;
13319;SDS011;59599;47.608;12.190;2023-06-05T12:58:36;11.55;;;9.23;;
13319;SDS011;59599;47.608;12.190;2023-06-05T13:01:02;7.97;;;7.18;;
13319;SDS011;59599;47.608;12.190;2023-06-05T13:03:29;8.60;;;7.65;;
13319;SDS011;59599;47.608;12.190;2023-06-05T13:05:54;7.45;;;6.75;;
13319;SDS011;59599;47.608;12.190;2023-06-05T13:08:20;8.13;;;6.53;;
13319;SDS011;59599;47.608;12.190;2023-06-05T13:10:46;8.57;;;7.15;;
13319;SDS011;59599;47.608;12.190;2023-06-05T13:13:12;10.27;;;7.78;;
13319;SDS011;59599;47.608;12.190;2023-06-05T13:15:39;8.65;;;7.82;;
13319;SDS011;59599;47.608;12.190;2023-06-05T13:18:06;9.10;;;7.55;;
13319;SDS011;59599;47.608;12.190;2023-06-05T13:20:34;8.40;;;7.50;;
13319;SDS011;59599;47.608;12.190;2023-06-05T13:23:00;9.55;;;7.32;;
13319;SDS011;59599;47.608;12.190;2023-06-05T13:25:26;7.00;;;5.72;;
13319;SDS011;59599;47.608;12.190;2023-06-05T13:27:52;5.43;;;4.93;;
13319;SDS011;59599;47.608;12.190;2023-06-05T13:30:18;6.47;;;4.82;;
13319;SDS011;59599;47.608;12.190;2023-06-05T13:32:43;4.55;;;3.85;;
13319;SDS011;59599;47.608;12.190;2023-06-05T13:35:10;4.35;;;3.25;;
13319;SDS011;59599;47.608;12.190;2023-06-05T13:37:39;5.10;;;3.05;;
13319;SDS011;59599;47.608;12.190;2023-06-05T13:40:05;4.78;;;3.38;;
13319;SDS011;59599;47.608;12.190;2023-06-05T13:42:35;3.92;;;2.80;;
13319;SDS011;59599;47.608;12.190;2023-06-05T13:45:00;3.50;;;2.78;;
13319;SDS011;59599;47.608;12.190;2023-06-05T13:47:26;6.53;;;3.28;;
13319;SDS011;59599;47.608;12.190;2023-06-05T13:49:52;5.38;;;3.22;;
13319;SDS011;59599;47.608;12.190;2023-06-05T13:52:18;3.85;;;3.10;;
13319;SDS011;59599;47.608;12.190;2023-06-05T13:54:44;4.47;;;3.08;;
13319;SDS011;59599;47.608;12.190;2023-06-05T13:57:10;3.97;;;3.00;;
13319;SDS011;59599;47.608;12.190;2023-06-05T13:59:37;5.10;;;3.05;;
13319;SDS011;59599;47.608;12.190;2023-06-05T14:02:03;4.75;;;3.35;;
13319;SDS011;59599;47.608;12.190;2023-06-05T14:04:28;3.33;;;2.97;;
13319;SDS011;59599;47.608;12.190;2023-06-05T14:06:54;3.17;;;2.83;;
13319;SDS011;59599;47.608;12.190;2023-06-05T14:09:22;3.85;;;3.45;;
13319;SDS011;59599;47.608;12.190;2023-06-05T14:11:48;5.57;;;3.63;;
13319;SDS011;59599;47.608;12.190;2023-06-05T14:14:14;5.78;;;3.72;;
13319;SDS011;59599;47.608;12.190;2023-06-05T14:16:40;3.83;;;3.53;;
13319;SDS011;59599;47.608;12.190;2023-06-05T14:19:06;4.28;;;3.30;;
13319;SDS011;59599;47.608;12.190;2023-06-05T14:21:32;3.72;;;3.15;;
13319;SDS011;59599;47.608;12.190;2023-06-05T14:23:58;5.18;;;3.50;;
13319;SDS011;59599;47.608;12.190;2023-06-05T14:26:24;3.92;;;3.20;;
13319;SDS011;59599;47.608;12.190;2023-06-05T14:28:50;5.75;;;3.20;;
13319;SDS011;59599;47.608;12.190;2023-06-05T14:31:16;3.75;;;2.72;;
13319;SDS011;59599;47.608;12.190;2023-06-05T14:33:42;3.85;;;3.42;;
13319;SDS011;59599;47.608;12.190;2023-06-05T14:36:07;5.63;;;3.50;;
13319;SDS011;59599;47.608;12.190;2023-06-05T14:38:33;4.55;;;3.53;;
13319;SDS011;59599;47.608;12.190;2023-06-05T14:40:59;4.10;;;3.65;;
13319;SDS011;59599;47.608;12.190;2023-06-05T14:43:25;7.25;;;3.75;;
13319;SDS011;59599;47.608;12.190;2023-06-05T14:45:51;5.78;;;3.13;;
13319;SDS011;59599;47.608;12.190;2023-06-05T14:48:17;4.97;;;3.22;;
13319;SDS011;59599;47.608;12.190;2023-06-05T14:50:43;4.90;;;3.75;;
13319;SDS011;59599;47.608;12.190;2023-06-05T14:53:11;3.88;;;3.47;;
13319;SDS011;59599;47.608;12.190;2023-06-05T14:55:37;3.97;;;3.58;;
13319;SDS011;59599;47.608;12.190;2023-06-05T14:58:03;5.90;;;3.55;;
13319;SDS011;59599;47.608;12.190;2023-06-05T15:00:30;11.75;;;4.35;;
13319;SDS011;59599;47.608;12.190;2023-06-05T15:02:56;4.18;;;3.78;;
13319;SDS011;59599;47.608;12.190;2023-06-05T15:05:22;4.15;;;3.75;;
13319;SDS011;59599;47.608;12.190;2023-06-05T15:07:48;3.80;;;3.22;;
13319;SDS011;59599;47.608;12.190;2023-06-05T15:10:14;5.85;;;3.58;;
13319;SDS011;59599;47.608;12.190;2023-06-05T15:12:41;4.65;;;3.83;;
13319;SDS011;59599;47.608;12.190;2023-06-05T15:15:07;4.32;;;3.70;;
13319;SDS011;59599;47.608;12.190;2023-06-05T15:17:33;3.67;;;3.30;;
13319;SDS011;59599;47.608;12.190;2023-06-05T15:20:00;3.90;;;3.58;;
13319;SDS011;59599;47.608;12.190;2023-06-05T15:22:29;5.15;;;4.65;;
13319;SDS011;59599;47.608;12.190;2023-06-05T15:24:55;4.90;;;3.55;;
13319;SDS011;59599;47.608;12.190;2023-06-05T15:27:21;4.15;;;3.80;;
13319;SDS011;59599;47.608;12.190;2023-06-05T15:29:46;4.63;;;3.72;;
13319;SDS011;59599;47.608;12.190;2023-06-05T15:32:12;3.83;;;3.53;;
13319;SDS011;59599;47.608;12.190;2023-06-05T15:34:38;3.95;;;3.53;;
13319;SDS011;59599;47.608;12.190;2023-06-05T15:37:05;7.28;;;3.83;;
13319;SDS011;59599;47.608;12.190;2023-06-05T15:39:31;4.55;;;4.03;;
13319;SDS011;59599;47.608;12.190;2023-06-05T15:41:58;5.35;;;4.05;;
13319;SDS011;59599;47.608;12.190;2023-06-05T15:44:23;4.30;;;3.85;;
13319;SDS011;59599;47.608;12.190;2023-06-05T15:46:49;5.47;;;4.47;;
13319;SDS011;59599;47.608;12.190;2023-06-05T15:49:15;4.53;;;4.03;;
13319;SDS011;59599;47.608;12.190;2023-06-05T15:51:41;5.13;;;4.68;;
13319;SDS011;59599;47.608;12.190;2023-06-05T15:54:07;5.00;;;4.18;;
13319;SDS011;59599;47.608;12.190;2023-06-05T15:56:33;4.88;;;4.20;;
13319;SDS011;59599;47.608;12.190;2023-06-05T15:58:59;4.80;;;4.30;;
13319;SDS011;59599;47.608;12.190;2023-06-05T16:01:25;4.85;;;4.32;;
13319;SDS011;59599;47.608;12.190;2023-06-05T16:03:51;5.00;;;3.90;;
13319;SDS011;59599;47.608;12.190;2023-06-05T16:06:17;4.15;;;3.75;;
13319;SDS011;59599;47.608;12.190;2023-06-05T16:08:43;3.45;;;3.15;;
13319;SDS011;59599;47.608;12.190;2023-06-05T16:11:10;5.72;;;3.85;;
13319;SDS011;59599;47.608;12.190;2023-06-05T16:13:36;5.07;;;2.97;;
13319;SDS011;59599;47.608;12.190;2023-06-05T16:16:02;3.30;;;3.00;;
13319;SDS011;59599;47.608;12.190;2023-06-05T16:18:28;3.47;;;3.17;;
13319;SDS011;59599;47.608;12.190;2023-06-05T16:20:54;2.90;;;2.60;;
13319;SDS011;59599;47.608;12.190;2023-06-05T16:23:20;4.45;;;2.78;;
13319;SDS011;59599;47.608;12.190;2023-06-05T16:25:46;2.50;;;2.15;;
13319;SDS011;59599;47.608;12.190;2023-06-05T16:28:12;3.85;;;2.95;;
13319;SDS011;59599;47.608;12.190;2023-06-05T16:30:38;3.13;;;2.83;;
13319;SDS011;59599;47.608;12.190;2023-06-05T16:33:04;3.42;;;2.90;;
13319;SDS011;59599;47.608;12.190;2023-06-05T16:35:30;3.25;;;2.95;;
13319;SDS011;59599;47.608;12.190;2023-06-05T16:37:56;2.90;;;2.60;;
13319;SDS011;59599;47.608;12.190;2023-06-05T16:40:22;3.33;;;3.03;;
13319;SDS011;59599;47.608;12.190;2023-06-05T16:42:48;3.30;;;2.58;;
13319;SDS011;59599;47.608;12.190;2023-06-05T16:45:14;3.83;;;2.97;;
13319;SDS011;59599;47.608;12.190;2023-06-05T16:47:40;3.72;;;3.17;;
13319;SDS011;59599;47.608;12.190;2023-06-05T16:50:06;3.75;;;3.00;;
13319;SDS011;59599;47.608;12.190;2023-06-05T16:52:32;3.33;;;3.03;;
13319;SDS011;59599;47.608;12.190;2023-06-05T16:54:58;3.47;;;3.00;;
13319;SDS011;59599;47.608;12.190;2023-06-05T16:57:23;2.65;;;2.40;;
13319;SDS011;59599;47.608;12.190;2023-06-05T16:59:49;4.70;;;2.70;;
13319;SDS011;59599;47.608;12.190;2023-06-05T17:02:15;2.97;;;2.78;;
13319;SDS011;59599;47.608;12.190;2023-06-05T17:04:41;4.88;;;2.90;;
13319;SDS011;59599;47.608;12.190;2023-06-05T17:07:07;3.28;;;2.70;;
13319;SDS011;59599;47.608;12.190;2023-06-05T17:09:33;2.97;;;2.70;;
13319;SDS011;59599;47.608;12.190;2023-06-05T17:11:59;3.38;;;2.70;;
13319;SDS011;59599;47.608;12.190;2023-06-05T17:14:25;3.30;;;3.00;;
13319;SDS011;59599;47.608;12.190;2023-06-05T17:16:51;3.03;;;2.72;;
13319;SDS011;59599;47.608;12.190;2023-06-05T17:19:17;3.30;;;2.80;;
13319;SDS011;59599;47.608;12.190;2023-06-05T17:21:44;3.88;;;3.22;;
13319;SDS011;59599;47.608;12.190;2023-06-05T17:24:09;3.55;;;3.20;;
13319;SDS011;59599;47.608;12.190;2023-06-05T17:26:35;3.83;;;3.10;;
13319;SDS011;59599;47.608;12.190;2023-06-05T17:29:01;4.55;;;3.10;;
13319;SDS011;59599;47.608;12.190;2023-06-05T17:31:27;3.83;;;2.90;;
13319;SDS011;59599;47.608;12.190;2023-06-05T17:33:54;3.00;;;2.70;;
13319;SDS011;59599;47.608;12.190;2023-06-05T17:36:20;3.05;;;2.70;;
13319;SDS011;59599;47.608;12.190;2023-06-05T17:38:46;2.85;;;2.55;;
13319;SDS011;59599;47.608;12.190;2023-06-05T17:41:12;3.65;;;2.78;;
13319;SDS011;59599;47.608;12.190;2023-06-05T17:43:38;2.78;;;2.58;;
13319;SDS011;59599;47.608;12.190;2023-06-05T17:46:04;2.88;;;2.40;;
13319;SDS011;59599;47.608;12.190;2023-06-05T17:48:30;2.63;;;2.42;;
13319;SDS011;59599;47.608;12.190;2023-06-05T17:50:56;3.40;;;2.30;;
13319;SDS011;59599;47.608;12.190;2023-06-05T17:53:22;2.70;;;2.45;;
13319;SDS011;59599;47.608;12.190;2023-06-05T17:55:52;3.10;;;2.80;;
13319;SDS011;59599;47.608;12.190;2023-06-05T17:58:18;3.25;;;2.70;;
13319;SDS011;59599;47.608;12.190;2023-06-05T18:00:45;3.08;;;2.78;;
13319;SDS011;59599;47.608;12.190;2023-06-05T18:03:10;3.05;;;2.72;;
13319;SDS011;59599;47.608;12.190;2023-06-05T18:05:36;3.20;;;2.90;;
13319;SDS011;59599;47.608;12.190;2023-06-05T18:08:02;2.90;;;2.45;;
13319;SDS011;59599;47.608;12.190;2023-06-05T18:10:28;3.92;;;3.33;;
13319;SDS011;59599;47.608;12.190;2023-06-05T18:12:54;3.33;;;2.72;;
13319;SDS011;59599;47.608;12.190;2023-06-05T18:15:20;3.35;;;3.05;;
13319;SDS011;59599;47.608;12.190;2023-06-05T18:17:46;3.10;;;2.88;;
13319;SDS011;59599;47.608;12.190;2023-06-05T18:20:12;3.20;;;2.90;;
13319;SDS011;59599;47.608;12.190;2023-06-05T18:22:38;3.60;;;3.20;;
13319;SDS011;59599;47.608;12.190;2023-06-05T18:25:04;3.97;;;2.80;;
13319;SDS011;59599;47.608;12.190;2023-06-05T18:27:33;3.17;;;2.88;;
13319;SDS011;59599;47.608;12.190;2023-06-05T18:29:58;3.97;;;3.55;;
13319;SDS011;59599;47.608;12.190;2023-06-05T18:32:24;4.25;;;3.53;;
13319;SDS011;59599;47.608;12.190;2023-06-05T18:34:50;5.55;;;3.20;;
13319;SDS011;59599;47.608;12.190;2023-06-05T18:37:16;3.97;;;2.97;;
13319;SDS011;59599;47.608;12.190;2023-06-05T18:39:42;4.03;;;3.40;;
13319;SDS011;59599;47.608;12.190;2023-06-05T18:42:08;4.88;;;4.47;;
13319;SDS011;59599;47.608;12.190;2023-06-05T18:44:35;5.47;;;3.97;;
13319;SDS011;59599;47.608;12.190;2023-06-05T18:47:01;3.50;;;3.20;;
13319;SDS011;59599;47.608;12.190;2023-06-05T18:49:27;3.90;;;3.60;;
13319;SDS011;59599;47.608;12.190;2023-06-05T18:51:53;3.47;;;3.17;;
13319;SDS011;59599;47.608;12.190;2023-06-05T18:54:19;3.75;;;3.45;;
13319;SDS011;59599;47.608;12.190;2023-06-05T18:56:46;3.92;;;3.63;;